Isle of South Uist, United Kingdom
Current Conditions -  °F | °C
As of 7:20 AM on Saturday 25 Oct 2014 (Local Time) from EGPL Reporting Station
Rain Showers Rain Showers  
Wind Chill: 50°   Ceiling: 4600
Heat Index: 50°   Visibility: 5mi
Dew Point: 46°   Wind: 24mph
Humidity: 87%   Direction: 240°WSW
Pressure: 29.38"   Gusts: NA
Location:  57.08°N, 7.3°W
Report Text: EGPL 250620Z 24021KT 8000 SHRA SCT012 SCT016 BKN046 10/08 Q0995 RERA
Loading
Personal Weather Stations






























Interactive Weather Map
Tropical Storm Tracking
New forecast layout! Learn more

10-Day Weather Forecast

Advertisements
Track Severe Weather on mobile